createdAt,value
2018-06-14T00:00:01.888Z,99.99
2018-06-14T00:00:40.827Z,99.99
2018-06-14T00:01:40.744Z,99.99
2018-06-14T00:02:40.666Z,99.99
2018-06-14T00:04:01.575Z,99.99
2018-06-14T00:05:01.489Z,99.99
2018-06-14T00:05:40.434Z,99.99
2018-06-14T00:06:40.411Z,99.99
2018-06-14T00:07:40.287Z,99.99
2018-06-14T00:09:01.197Z,99.99
2018-06-14T00:10:01.872Z,99.99
2018-06-14T00:10:40.808Z,99.99
2018-06-14T00:11:40.755Z,99.99
2018-06-14T00:12:39.911Z,99.99
2018-06-14T00:14:00.838Z,99.99
2018-06-14T00:15:00.761Z,99.99
2018-06-14T00:15:39.685Z,99.99
2018-06-14T00:16:39.648Z,99.99
2018-06-14T00:17:39.555Z,99.99
2018-06-14T00:19:00.468Z,99.99
2018-06-14T00:20:00.373Z,99.99
2018-06-14T00:20:39.319Z,99.99
2018-06-14T00:21:39.249Z,99.99
2018-06-14T00:22:39.914Z,99.99
2018-06-14T00:24:00.821Z,99.99
2018-06-14T00:25:00.842Z,99.99
2018-06-14T00:25:38.958Z,99.99
2018-06-14T00:26:38.888Z,99.99
2018-06-14T00:27:38.794Z,99.99
2018-06-14T00:28:59.705Z,99.99
2018-06-14T00:29:59.653Z,99.99
2018-06-14T00:30:38.579Z,99.99
2018-06-14T00:31:38.497Z,99.99
2018-06-14T00:32:38.420Z,99.99
2018-06-14T00:33:59.343Z,99.99
2018-06-14T00:34:59.261Z,99.99
2018-06-14T00:35:38.202Z,99.99
2018-06-14T00:36:38.915Z,99.99
2018-06-14T00:37:38.827Z,99.99
2018-06-14T00:38:58.971Z,99.99
2018-06-14T00:39:58.886Z,99.99
2018-06-14T00:40:37.837Z,99.99
2018-06-14T00:41:37.750Z,99.99
2018-06-14T00:42:37.682Z,99.99
2018-06-14T00:43:58.590Z,99.99
2018-06-14T00:44:58.511Z,99.99
2018-06-14T00:45:37.467Z,99.99
2018-06-14T00:46:37.393Z,99.99
2018-06-14T00:47:37.328Z,99.99
2018-06-14T00:48:58.214Z,99.99
2018-06-14T00:49:58.161Z,99.99
2018-06-14T00:50:37.830Z,99.99
2018-06-14T00:51:37.760Z,99.99
2018-06-14T00:52:36.936Z,99.99
2018-06-14T00:53:57.868Z,99.99
2018-06-14T00:54:57.786Z,99.99
2018-06-14T00:55:36.716Z,99.99
2018-06-14T00:56:36.632Z,99.99
2018-06-14T00:57:36.566Z,99.99
2018-06-14T00:58:58.369Z,99.99
2018-06-14T00:59:57.381Z,99.99
2018-06-14T01:00:36.328Z,99.99
2018-06-14T01:01:36.256Z,99.99
2018-06-14T01:02:36.194Z,99.99
2018-06-14T01:03:57.123Z,99.99
2018-06-14T01:04:57.016Z,99.99
2018-06-14T01:05:35.952Z,99.99
2018-06-14T01:06:35.946Z,99.99
2018-06-14T01:07:35.800Z,99.99
2018-06-14T01:08:56.711Z,99.99
2018-06-14T01:09:56.636Z,99.99
2018-06-14T01:10:35.584Z,99.99
2018-06-14T01:11:35.507Z,99.99
2018-06-14T01:12:35.432Z,99.99
2018-06-14T01:13:56.357Z,99.99
2018-06-14T01:14:56.270Z,99.99
2018-06-14T01:15:35.196Z,99.99
2018-06-14T01:16:35.138Z,99.99
2018-06-14T01:17:35.058Z,99.99
2018-06-14T01:18:55.966Z,99.99
2018-06-14T01:19:55.977Z,99.99
2018-06-14T01:20:34.856Z,99.99
2018-06-14T01:21:34.787Z,99.99
2018-06-14T01:22:34.684Z,99.99
2018-06-14T01:23:55.591Z,99.99
2018-06-14T01:24:55.518Z,99.99
2018-06-14T01:25:34.468Z,99.99
2018-06-14T01:26:34.385Z,99.99
2018-06-14T01:27:34.306Z,99.99
2018-06-14T01:28:55.211Z,99.99
2018-06-14T01:29:55.152Z,99.99
2018-06-14T01:30:34.086Z,99.99
2018-06-14T01:31:34.005Z,99.99
2018-06-14T01:32:33.941Z,99.99
2018-06-14T01:33:54.843Z,99.99
2018-06-14T01:34:54.801Z,99.99
2018-06-14T01:35:33.702Z,99.99
2018-06-14T01:36:33.632Z,99.99
2018-06-14T01:37:33.556Z,99.99
2018-06-14T01:38:54.471Z,99.99
2018-06-14T01:39:54.394Z,99.99
2018-06-14T01:40:33.336Z,99.99
2018-06-14T01:41:33.262Z,99.99
2018-06-14T01:42:33.212Z,99.99
2018-06-14T01:43:54.092Z,99.99
2018-06-14T01:44:54.022Z,99.99
2018-06-14T01:45:32.959Z,99.99
2018-06-14T01:46:32.878Z,99.99
2018-06-14T01:47:32.832Z,99.99
2018-06-14T01:48:53.724Z,99.99
2018-06-14T01:49:53.628Z,99.99
2018-06-14T01:50:32.610Z,99.99
2018-06-14T01:51:32.507Z,99.99
2018-06-14T01:52:32.436Z,99.99
2018-06-14T01:53:53.342Z,99.99
2018-06-14T01:54:53.250Z,99.99
2018-06-14T01:55:32.211Z,99.99
2018-06-14T01:56:32.160Z,99.99
2018-06-14T01:57:32.845Z,99.99
2018-06-14T01:58:52.955Z,99.99
2018-06-14T01:59:52.876Z,99.99
2018-06-14T02:00:31.834Z,99.99
2018-06-14T02:01:31.749Z,99.99
2018-06-14T02:02:31.690Z,99.99
2018-06-14T02:03:52.579Z,99.99
2018-06-14T02:04:52.506Z,99.99
2018-06-14T02:05:31.469Z,99.99
2018-06-14T02:06:31.377Z,99.99
2018-06-14T02:07:31.399Z,99.99
2018-06-14T02:08:52.201Z,99.99
2018-06-14T02:09:52.171Z,99.99
2018-06-14T02:10:32.865Z,99.99
2018-06-14T02:11:31.813Z,99.99
2018-06-14T02:12:30.934Z,99.99
2018-06-14T02:13:51.826Z,99.99
2018-06-14T02:14:51.754Z,99.99
2018-06-14T02:15:30.700Z,99.99
2018-06-14T02:16:30.647Z,99.99
2018-06-14T02:17:30.558Z,99.99
2018-06-14T02:18:51.456Z,99.99
2018-06-14T02:19:51.381Z,99.99
2018-06-14T02:20:30.335Z,99.99
2018-06-14T02:21:30.263Z,99.99
2018-06-14T02:22:30.177Z,99.99
2018-06-14T02:23:51.066Z,99.99
2018-06-14T02:24:51.005Z,99.99
2018-06-14T02:25:29.948Z,99.99
2018-06-14T02:26:29.861Z,99.99
2018-06-14T02:27:29.783Z,99.99
2018-06-14T02:28:50.698Z,99.99
2018-06-14T02:29:50.614Z,99.99
2018-06-14T02:30:29.569Z,99.99
2018-06-14T02:31:29.489Z,99.99
2018-06-14T02:32:29.415Z,99.99
2018-06-14T02:33:50.321Z,99.99
2018-06-14T02:34:50.267Z,99.99
2018-06-14T02:35:29.218Z,99.99
2018-06-14T02:36:30.946Z,99.99
2018-06-14T02:37:29.853Z,99.99
2018-06-14T02:38:49.946Z,99.99
2018-06-14T02:39:49.877Z,99.99
2018-06-14T02:40:28.803Z,99.99
2018-06-14T02:41:28.741Z,99.99
2018-06-14T02:42:28.655Z,99.99
2018-06-14T02:43:49.567Z,99.99
2018-06-14T02:44:49.496Z,99.99
2018-06-14T02:45:28.436Z,99.99
2018-06-14T02:46:28.428Z,99.99
2018-06-14T02:47:28.278Z,99.99
2018-06-14T02:48:49.306Z,99.99
2018-06-14T02:49:49.103Z,99.99
2018-06-14T02:50:28.046Z,99.99
2018-06-14T02:51:27.973Z,99.99
2018-06-14T02:52:27.918Z,99.99
2018-06-14T02:53:48.844Z,99.99
2018-06-14T02:54:48.744Z,99.99
2018-06-14T02:55:27.677Z,99.99
2018-06-14T02:56:27.579Z,99.99
2018-06-14T02:57:27.538Z,99.99
2018-06-14T02:58:48.435Z,99.99
2018-06-14T02:59:48.361Z,99.99
2018-06-14T03:00:27.325Z,99.99
2018-06-14T03:01:27.245Z,99.99
2018-06-14T03:02:27.164Z,99.99
2018-06-14T03:03:48.056Z,99.99
2018-06-14T03:04:47.983Z,99.99
2018-06-14T03:05:26.920Z,99.99
2018-06-14T03:06:26.865Z,99.99
2018-06-14T03:07:26.778Z,99.99
2018-06-14T03:08:47.683Z,99.99
2018-06-14T03:09:47.603Z,99.99
2018-06-14T03:10:26.552Z,99.99
2018-06-14T03:11:26.516Z,99.99
2018-06-14T03:12:26.437Z,99.99
2018-06-14T03:13:47.300Z,99.99
2018-06-14T03:14:47.222Z,99.99
2018-06-14T03:15:26.173Z,99.99
2018-06-14T03:16:26.085Z,99.99
2018-06-14T03:17:26.020Z,99.99
2018-06-14T03:18:46.928Z,99.99
2018-06-14T03:19:46.846Z,99.99
2018-06-14T03:20:25.800Z,99.99
2018-06-14T03:21:25.724Z,99.99
2018-06-14T03:22:25.643Z,99.99
2018-06-14T03:23:46.579Z,99.99
2018-06-14T03:24:46.511Z,99.99
2018-06-14T03:25:25.412Z,99.99
2018-06-14T03:26:25.353Z,99.99
2018-06-14T03:27:25.277Z,99.99
2018-06-14T03:28:46.165Z,99.99
2018-06-14T03:29:46.084Z,99.99
2018-06-14T03:30:25.136Z,99.99
2018-06-14T03:31:24.952Z,99.99
2018-06-14T03:32:24.872Z,99.99
2018-06-14T03:33:45.809Z,99.99
2018-06-14T03:34:45.712Z,99.99
2018-06-14T03:35:24.644Z,99.99
2018-06-14T03:36:24.565Z,99.99
2018-06-14T03:37:24.493Z,99.99
2018-06-14T03:38:45.418Z,99.99
2018-06-14T03:39:45.327Z,99.99
2018-06-14T03:40:24.267Z,99.99
2018-06-14T03:41:24.200Z,99.99
2018-06-14T03:42:24.119Z,99.99
2018-06-14T03:43:45.056Z,99.99
2018-06-14T03:44:44.952Z,99.99
2018-06-14T03:45:23.893Z,99.99
2018-06-14T03:46:23.882Z,99.99
2018-06-14T03:47:23.813Z,99.99
2018-06-14T03:48:44.638Z,99.99
2018-06-14T03:49:44.568Z,99.99
2018-06-14T03:50:23.524Z,99.99
2018-06-14T03:51:23.442Z,99.99
2018-06-14T03:52:23.374Z,99.99
2018-06-14T03:53:44.285Z,99.99
2018-06-14T03:54:44.208Z,99.99
2018-06-14T03:55:23.142Z,99.99
2018-06-14T03:56:23.060Z,99.99
2018-06-14T03:57:22.977Z,99.99
2018-06-14T03:58:43.889Z,99.99
2018-06-14T03:59:43.826Z,99.99
2018-06-14T04:00:22.805Z,99.99
2018-06-14T04:01:22.673Z,99.99
2018-06-14T04:02:22.614Z,99.99
2018-06-14T04:03:43.520Z,99.99
2018-06-14T04:04:43.501Z,99.99
2018-06-14T04:05:22.376Z,99.99
2018-06-14T04:06:22.318Z,99.99
2018-06-14T04:07:22.247Z,99.99
2018-06-14T04:08:43.175Z,99.99
2018-06-14T04:09:43.075Z,99.99
2018-06-14T04:10:22.017Z,99.99
2018-06-14T04:11:21.945Z,99.99
2018-06-14T04:12:21.866Z,99.99
2018-06-14T04:13:42.760Z,99.99
2018-06-14T04:14:42.661Z,99.99
2018-06-14T04:15:21.648Z,99.99
2018-06-14T04:16:21.571Z,99.99
2018-06-14T04:17:21.483Z,99.99
2018-06-14T04:18:42.385Z,99.99
2018-06-14T04:19:42.327Z,99.99
2018-06-14T04:20:21.293Z,99.99
2018-06-14T04:21:21.171Z,99.99
2018-06-14T04:22:21.088Z,99.99
2018-06-14T04:23:42.008Z,99.99
2018-06-14T04:24:41.931Z,99.99
2018-06-14T04:25:20.862Z,99.99
2018-06-14T04:26:20.848Z,99.99
2018-06-14T04:27:20.729Z,99.99
2018-06-14T04:28:41.645Z,99.99
2018-06-14T04:29:41.547Z,99.99
2018-06-14T04:30:20.487Z,99.99
2018-06-14T04:31:20.431Z,99.99
2018-06-14T04:32:20.351Z,99.99
2018-06-14T04:33:41.247Z,99.99
2018-06-14T04:34:41.169Z,99.99
2018-06-14T04:35:20.111Z,99.99
2018-06-14T04:36:20.040Z,99.99
2018-06-14T04:37:19.973Z,99.99
2018-06-14T04:38:40.866Z,99.99
2018-06-14T04:39:40.808Z,99.99
2018-06-14T04:40:19.733Z,99.99
2018-06-14T04:41:19.676Z,99.99
2018-06-14T04:42:19.647Z,99.99
2018-06-14T04:43:40.489Z,99.99
2018-06-14T04:44:40.416Z,99.99
2018-06-14T04:45:19.337Z,99.99
2018-06-14T04:46:19.287Z,99.99
2018-06-14T04:47:19.211Z,99.99
2018-06-14T04:48:40.947Z,99.99
2018-06-14T04:49:40.842Z,99.99
2018-06-14T04:50:18.991Z,99.99
2018-06-14T04:51:18.893Z,99.99
2018-06-14T04:52:18.828Z,99.99
2018-06-14T04:53:39.732Z,99.99
2018-06-14T04:54:40.893Z,99.99
2018-06-14T04:55:18.600Z,99.99
2018-06-14T04:56:18.520Z,99.99
2018-06-14T04:57:18.467Z,99.99
2018-06-14T04:58:39.365Z,99.99
2018-06-14T04:59:39.305Z,99.99
2018-06-14T05:00:18.236Z,99.99
2018-06-14T05:01:18.145Z,99.99
2018-06-14T05:02:18.101Z,99.99
2018-06-14T05:03:39.818Z,99.55
2018-06-14T05:04:38.930Z,99.75
2018-06-14T05:05:17.844Z,99.94
2018-06-14T05:06:17.771Z,99.99
2018-06-14T05:07:17.687Z,99.75
2018-06-14T05:08:38.612Z,99.46
2018-06-14T05:09:38.550Z,99.94
2018-06-14T05:10:17.550Z,99.75
2018-06-14T05:11:17.433Z,99.80
2018-06-14T05:12:17.332Z,99.60
2018-06-14T05:13:38.277Z,99.51
2018-06-14T05:14:38.194Z,99.41
2018-06-14T05:15:17.101Z,99.70
2018-06-14T05:16:17.027Z,99.41
2018-06-14T05:17:16.955Z,99.80
2018-06-14T05:18:37.868Z,99.13
2018-06-14T05:19:37.791Z,98.94
2018-06-14T05:20:16.736Z,99.13
2018-06-14T05:21:16.654Z,99.51
2018-06-14T05:22:16.560Z,99.04
2018-06-14T05:23:37.573Z,99.41
2018-06-14T05:24:37.460Z,98.75
2018-06-14T05:25:16.354Z,98.94
2018-06-14T05:26:16.290Z,98.85
2018-06-14T05:27:16.205Z,98.85
2018-06-14T05:28:38.820Z,98.85
2018-06-14T05:29:37.897Z,98.85
2018-06-14T05:30:15.975Z,99.04
2018-06-14T05:31:15.894Z,99.37
2018-06-14T05:32:15.859Z,99.08
2018-06-14T05:33:36.751Z,99.37
2018-06-14T05:34:36.688Z,99.56
2018-06-14T05:35:15.621Z,99.08
2018-06-14T05:36:15.545Z,99.18
2018-06-14T05:37:15.464Z,99.27
2018-06-14T05:38:36.410Z,99.18
2018-06-14T05:39:36.303Z,98.51
2018-06-14T05:40:15.243Z,98.99
2018-06-14T05:41:15.162Z,98.99
2018-06-14T05:42:15.127Z,98.90
2018-06-14T05:43:36.824Z,99.27
2018-06-14T05:44:35.905Z,99.18
2018-06-14T05:45:14.856Z,99.08
2018-06-14T05:46:14.805Z,98.90
2018-06-14T05:47:14.729Z,98.90
2018-06-14T05:48:35.639Z,98.99
2018-06-14T05:49:35.537Z,99.18
2018-06-14T05:50:14.487Z,99.56
2018-06-14T05:51:14.432Z,99.27
2018-06-14T05:52:14.336Z,99.18
2018-06-14T05:53:35.318Z,99.08
2018-06-14T05:54:35.207Z,99.37
2018-06-14T05:55:14.127Z,99.08
2018-06-14T05:56:14.039Z,98.47
2018-06-14T05:57:14.004Z,99.04
2018-06-14T05:58:34.885Z,98.66
2018-06-14T05:59:34.804Z,98.66
2018-06-14T06:00:13.762Z,98.56
2018-06-14T06:01:13.681Z,98.66
2018-06-14T06:02:13.594Z,98.47
2018-06-14T06:03:35.913Z,98.47
2018-06-14T06:04:34.456Z,98.23
2018-06-14T06:05:13.436Z,97.85
2018-06-14T06:06:13.311Z,98.23
2018-06-14T06:07:13.238Z,97.75
2018-06-14T06:08:34.149Z,98.32
2018-06-14T06:09:34.896Z,98.42
2018-06-14T06:10:13.859Z,98.32
2018-06-14T06:11:12.940Z,98.32
2018-06-14T06:12:12.905Z,98.23
2018-06-14T06:13:35.831Z,97.94
2018-06-14T06:14:33.714Z,97.37
2018-06-14T06:15:12.655Z,97.66
2018-06-14T06:16:12.570Z,97.80
2018-06-14T06:17:12.494Z,97.27
2018-06-14T06:18:33.698Z,97.13
2018-06-14T06:19:33.376Z,97.42
2018-06-14T06:20:12.310Z,97.61
2018-06-14T06:21:12.211Z,97.32
2018-06-14T06:22:13.850Z,97.03
2018-06-14T06:23:33.967Z,97.32
2018-06-14T06:24:33.842Z,97.13
2018-06-14T06:25:11.891Z,97.13
2018-06-14T06:26:11.874Z,97.61
2018-06-14T06:27:11.866Z,96.75
2018-06-14T06:28:32.656Z,97.23
2018-06-14T06:29:32.644Z,97.23
2018-06-14T06:30:11.544Z,97.28
2018-06-14T06:31:11.455Z,97.37
2018-06-14T06:32:11.393Z,96.80
2018-06-14T06:33:32.349Z,96.80
2018-06-14T06:34:32.224Z,96.89
2018-06-14T06:35:11.169Z,96.89
2018-06-14T06:36:12.837Z,96.13
2018-06-14T06:37:11.031Z,96.13
2018-06-14T06:38:31.933Z,96.42
2018-06-14T06:39:31.856Z,96.32
2018-06-14T06:40:10.789Z,96.27
2018-06-14T06:41:10.730Z,95.89
2018-06-14T06:42:10.643Z,95.98
2018-06-14T06:43:31.583Z,96.56
2018-06-14T06:44:31.500Z,96.08
2018-06-14T06:45:10.436Z,95.98
2018-06-14T06:46:10.409Z,95.32
2018-06-14T06:47:10.295Z,95.56
2018-06-14T06:48:31.225Z,95.46
2018-06-14T06:49:31.124Z,95.07
2018-06-14T06:50:10.078Z,95.17
2018-06-14T06:51:10.026Z,95.07
2018-06-14T06:52:09.924Z,94.89
2018-06-14T06:53:30.858Z,94.79
2018-06-14T06:54:30.809Z,94.21
2018-06-14T06:55:09.754Z,94.89
2018-06-14T06:56:09.627Z,95.07
2018-06-14T06:57:09.605Z,94.50
2018-06-14T06:58:30.491Z,94.50
2018-06-14T06:59:30.420Z,94.07
2018-06-14T07:00:09.377Z,93.84
2018-06-14T07:01:09.297Z,93.88
2018-06-14T07:02:09.220Z,94.17
2018-06-14T07:03:30.123Z,93.88
2018-06-14T07:04:30.039Z,93.98
2018-06-14T07:05:08.999Z,93.93
2018-06-14T07:06:09.015Z,93.98
2018-06-14T07:07:08.840Z,93.69
2018-06-14T07:08:29.779Z,93.79
2018-06-14T07:09:29.694Z,93.79
2018-06-14T07:10:08.622Z,94.26
2018-06-14T07:11:08.552Z,93.54
2018-06-14T07:12:08.473Z,93.35
2018-06-14T07:13:29.426Z,93.16
2018-06-14T07:14:29.316Z,92.58
2018-06-14T07:15:08.261Z,93.16
2018-06-14T07:16:08.186Z,92.68
2018-06-14T07:17:08.108Z,93.07
2018-06-14T07:18:29.019Z,93.16
2018-06-14T07:19:28.957Z,93.26
2018-06-14T07:20:07.891Z,92.54
2018-06-14T07:21:07.956Z,91.86
2018-06-14T07:22:07.758Z,92.06
2018-06-14T07:23:28.720Z,91.67
2018-06-14T07:24:28.597Z,91.19
2018-06-14T07:25:07.552Z,91.14
2018-06-14T07:26:07.475Z,90.19
2018-06-14T07:27:07.392Z,90.38
2018-06-14T07:28:28.329Z,90.67
2018-06-14T07:29:28.240Z,88.75
2018-06-14T07:30:07.191Z,88.65
2018-06-14T07:31:07.138Z,89.23
2018-06-14T07:32:07.113Z,88.94
2018-06-14T07:33:27.991Z,89.23
2018-06-14T07:34:27.866Z,89.13
2018-06-14T07:35:06.821Z,89.23
2018-06-14T07:36:06.756Z,90.00
2018-06-14T07:37:06.670Z,89.56
2018-06-14T07:38:27.583Z,89.85
2018-06-14T07:39:27.519Z,85.25
2018-06-14T07:40:06.462Z,85.63
2018-06-14T07:41:06.391Z,87.49
2018-06-14T07:42:06.365Z,84.09
2018-06-14T07:43:27.237Z,83.75
2018-06-14T07:44:27.175Z,83.37
2018-06-14T07:45:06.963Z,82.51
2018-06-14T07:46:06.900Z,82.98
2018-06-14T07:47:05.960Z,83.08
2018-06-14T07:48:26.879Z,80.58
2018-06-14T07:49:26.821Z,80.20
2018-06-14T07:50:05.780Z,80.11
2018-06-14T07:51:05.689Z,80.40
2018-06-14T07:52:05.611Z,81.74
2018-06-14T07:53:26.531Z,82.70
2018-06-14T07:54:26.461Z,82.51
2018-06-14T07:55:05.392Z,76.94
2018-06-14T07:56:05.318Z,74.64
2018-06-14T07:57:05.271Z,73.87
2018-06-14T07:58:26.169Z,74.73
2018-06-14T07:59:26.098Z,72.91
2018-06-14T08:00:05.930Z,73.91
2018-06-14T08:01:04.998Z,74.68
2018-06-14T08:02:04.912Z,74.96
2018-06-14T08:03:25.818Z,74.68
2018-06-14T08:04:25.779Z,75.35
2018-06-14T08:05:04.804Z,76.21
2018-06-14T08:06:04.630Z,71.31
2018-06-14T08:07:04.555Z,70.39
2018-06-14T08:08:25.470Z,69.34
2018-06-14T08:09:25.396Z,67.99
2018-06-14T08:10:04.346Z,67.99
2018-06-14T08:11:04.295Z,68.37
2018-06-14T08:12:04.206Z,67.80
2018-06-14T08:13:25.115Z,66.93
2018-06-14T08:14:25.040Z,67.99
2018-06-14T08:15:03.982Z,67.80
2018-06-14T08:16:03.934Z,67.13
2018-06-14T08:17:03.855Z,67.07
2018-06-14T08:18:24.763Z,65.53
2018-06-14T08:19:24.694Z,64.85
2018-06-14T08:20:03.646Z,65.72
2018-06-14T08:21:03.574Z,65.81
2018-06-14T08:22:03.504Z,66.39
2018-06-14T08:23:24.413Z,66.39
2018-06-14T08:24:24.351Z,66.58
2018-06-14T08:25:03.309Z,66.39
2018-06-14T08:26:03.229Z,66.39
2018-06-14T08:27:03.208Z,64.98
2018-06-14T08:28:24.060Z,63.15
2018-06-14T08:29:24.007Z,63.54
2018-06-14T08:30:02.939Z,62.29
2018-06-14T08:31:02.871Z,63.45
2018-06-14T08:32:02.813Z,64.98
2018-06-14T08:33:23.722Z,64.98
2018-06-14T08:34:23.662Z,65.37
2018-06-14T08:35:02.597Z,64.69
2018-06-14T08:36:02.517Z,65.56
2018-06-14T08:37:02.482Z,64.98
2018-06-14T08:38:23.392Z,64.60
2018-06-14T08:39:23.300Z,61.91
2018-06-14T08:40:02.247Z,61.84
2018-06-14T08:41:02.187Z,61.65
2018-06-14T08:42:02.975Z,61.65
2018-06-14T08:43:23.009Z,62.13
2018-06-14T08:44:22.944Z,56.55
2018-06-14T08:45:01.939Z,54.85
2018-06-14T08:46:01.818Z,54.94
2018-06-14T08:47:01.791Z,54.94
2018-06-14T08:48:22.677Z,55.81
2018-06-14T08:49:22.623Z,56.67
2018-06-14T08:50:01.554Z,57.92
2018-06-14T08:51:01.485Z,57.35
2018-06-14T08:52:01.421Z,55.81
2018-06-14T08:53:22.336Z,55.04
2018-06-14T08:54:22.262Z,54.91
2018-06-14T08:55:01.279Z,53.66
2018-06-14T08:56:02.878Z,53.47
2018-06-14T08:57:01.947Z,54.82
2018-06-14T08:58:21.992Z,54.82
2018-06-14T08:59:21.928Z,53.96
2018-06-14T09:00:00.858Z,54.91
2018-06-14T09:01:00.840Z,55.11
2018-06-14T09:02:00.730Z,54.91
2018-06-14T09:03:21.637Z,55.71
2018-06-14T09:04:21.561Z,57.73
2018-06-14T09:05:00.562Z,57.13
2018-06-14T09:06:00.464Z,56.38
2018-06-14T09:07:00.513Z,56.58
2018-06-14T09:08:21.312Z,57.35
2018-06-14T09:09:21.238Z,57.73
2018-06-14T09:10:00.223Z,58.31
2018-06-14T09:11:01.881Z,57.45
2018-06-14T09:12:00.928Z,57.45
2018-06-14T09:13:20.959Z,58.02
2018-06-14T09:14:20.920Z,56.58
2018-06-14T09:14:59.833Z,57.09
2018-06-14T09:15:59.761Z,57.57
2018-06-14T09:16:59.699Z,57.95
2018-06-14T09:18:20.621Z,56.12
2018-06-14T09:19:20.574Z,55.77
2018-06-14T09:19:59.501Z,54.03
2018-06-14T09:20:59.428Z,53.55
2018-06-14T09:21:59.403Z,53.55
2018-06-14T09:23:21.215Z,53.67
2018-06-14T09:24:20.212Z,53.29
2018-06-14T09:24:59.170Z,53.48
2018-06-14T09:25:59.122Z,52.91
2018-06-14T09:26:59.030Z,52.52
2018-06-14T09:28:19.954Z,53.19
2018-06-14T09:29:19.896Z,52.97
2018-06-14T09:29:58.891Z,54.80
2018-06-14T09:30:58.784Z,54.16
2018-06-14T09:31:58.717Z,53.41
2018-06-14T09:33:19.623Z,52.06
2018-06-14T09:34:19.556Z,51.68
2018-06-14T09:34:58.547Z,50.84
2018-06-14T09:35:58.437Z,49.96
2018-06-14T09:36:58.436Z,51.00
2018-06-14T09:38:19.318Z,50.42
2018-06-14T09:39:19.287Z,50.69
2018-06-14T09:39:58.198Z,50.21
2018-06-14T09:40:58.162Z,50.66
2018-06-14T09:41:58.067Z,52.01
2018-06-14T09:43:18.981Z,52.56
2018-06-14T09:44:18.907Z,52.56
2018-06-14T09:44:57.882Z,52.23
2018-06-14T09:45:57.875Z,50.76
2018-06-14T09:46:57.743Z,51.72
2018-06-14T09:48:18.670Z,50.30
2018-06-14T09:49:18.592Z,51.05
2018-06-14T09:49:57.550Z,51.21
2018-06-14T09:50:57.476Z,52.56
2018-06-14T09:51:57.424Z,52.30
2018-06-14T09:53:18.329Z,51.41
2018-06-14T09:54:18.280Z,52.66
2018-06-14T09:54:57.215Z,52.56
2018-06-14T09:55:57.169Z,52.20
2018-06-14T09:56:57.088Z,51.39
2018-06-14T09:58:18.000Z,50.45
2018-06-14T09:59:17.934Z,47.12
2018-06-14T09:59:56.903Z,46.56
2018-06-14T10:00:56.836Z,46.49
2018-06-14T10:01:56.791Z,45.35
2018-06-14T10:03:17.730Z,44.36
2018-06-14T10:04:17.628Z,43.99
2018-06-14T10:04:56.570Z,43.88
2018-06-14T10:05:56.568Z,43.88
2018-06-14T10:06:56.453Z,43.84
2018-06-14T10:08:17.401Z,44.67
2018-06-14T10:09:17.310Z,43.68
2018-06-14T10:09:56.288Z,43.71
2018-06-14T10:10:56.254Z,43.24
2018-06-14T10:11:56.162Z,42.61
2018-06-14T10:13:17.075Z,43.19
2018-06-14T10:14:17.065Z,42.32
2018-06-14T10:14:55.964Z,42.16
2018-06-14T10:15:55.928Z,45.04
2018-06-14T10:16:55.851Z,43.80
2018-06-14T10:18:16.783Z,42.03
2018-06-14T10:19:16.726Z,42.14
2018-06-14T10:19:55.653Z,40.42
2018-06-14T10:20:55.605Z,40.71
2018-06-14T10:21:55.555Z,42.05
2018-06-14T10:23:16.477Z,41.95
2018-06-14T10:24:16.464Z,42.68
2018-06-14T10:24:55.377Z,42.82
2018-06-14T10:25:55.321Z,44.65
2018-06-14T10:26:55.283Z,45.59
2018-06-14T10:28:16.187Z,46.30
2018-06-14T10:29:16.171Z,46.30
2018-06-14T10:29:55.083Z,46.10
2018-06-14T10:30:55.004Z,45.59
2018-06-14T10:31:54.953Z,45.95
2018-06-14T10:33:15.875Z,43.96
2018-06-14T10:34:15.815Z,44.43
2018-06-14T10:34:54.795Z,44.16
2018-06-14T10:35:54.697Z,43.85
2018-06-14T10:36:54.635Z,43.61
2018-06-14T10:38:15.569Z,45.98
2018-06-14T10:39:15.504Z,46.92
2018-06-14T10:39:54.459Z,47.24
2018-06-14T10:40:54.426Z,44.92
2018-06-14T10:41:54.326Z,45.23
2018-06-14T10:43:15.268Z,45.96
2018-06-14T10:44:15.287Z,47.31
2018-06-14T10:44:54.145Z,47.00
2018-06-14T10:45:54.131Z,47.58
2018-06-14T10:46:54.037Z,46.90
2018-06-14T10:48:15.009Z,48.16
2018-06-14T10:49:14.898Z,48.33
2018-06-14T10:49:53.839Z,49.07
2018-06-14T10:50:53.777Z,49.27
2018-06-14T10:51:53.712Z,49.82
2018-06-14T10:53:14.633Z,50.49
2018-06-14T10:54:14.555Z,50.23
2018-06-14T10:54:53.504Z,50.13
2018-06-14T10:55:53.453Z,49.91
2018-06-14T10:56:53.438Z,50.49
2018-06-14T10:58:14.392Z,51.29
2018-06-14T10:59:14.237Z,50.71
2018-06-14T10:59:53.254Z,50.62
2018-06-14T11:00:53.147Z,51.10
2018-06-14T11:01:53.092Z,51.29
2018-06-14T11:03:13.975Z,51.07
2018-06-14T11:04:13.913Z,50.71
2018-06-14T11:04:52.856Z,50.74
2018-06-14T11:05:52.836Z,50.45
2018-06-14T11:06:52.721Z,50.52
2018-06-14T11:08:13.646Z,50.93
2018-06-14T11:09:13.579Z,50.93
2018-06-14T11:09:52.535Z,50.26
2018-06-14T11:10:52.502Z,49.87
2018-06-14T11:11:52.477Z,49.77
2018-06-14T11:13:13.394Z,49.37
2018-06-14T11:14:13.260Z,48.88
2018-06-14T11:14:52.221Z,50.04
2018-06-14T11:15:52.143Z,50.42
2018-06-14T11:16:52.073Z,49.24
2018-06-14T11:18:13.002Z,46.97
2018-06-14T11:19:12.927Z,46.03
2018-06-14T11:19:51.969Z,45.30
2018-06-14T11:20:51.808Z,43.77
2018-06-14T11:21:51.773Z,43.24
2018-06-14T11:23:12.664Z,43.27
2018-06-14T11:24:12.630Z,43.87
2018-06-14T11:24:51.574Z,43.41
2018-06-14T11:25:51.494Z,43.38
2018-06-14T11:26:51.438Z,44.02
2018-06-14T11:28:12.351Z,44.65
2018-06-14T11:29:12.323Z,45.59
2018-06-14T11:29:51.266Z,46.39
2018-06-14T11:30:51.191Z,46.08
2018-06-14T11:31:51.109Z,46.66
2018-06-14T11:33:12.044Z,46.83
2018-06-14T11:34:11.974Z,47.12
2018-06-14T11:34:50.914Z,48.08
2018-06-14T11:35:50.867Z,47.41
2018-06-14T11:36:50.795Z,48.37
2018-06-14T11:38:11.728Z,48.18
2018-06-14T11:39:11.660Z,48.08
2018-06-14T11:39:50.624Z,48.16
2018-06-14T11:40:50.545Z,48.74
2018-06-14T11:41:50.473Z,48.61
2018-06-14T11:43:11.406Z,49.29
2018-06-14T11:44:11.346Z,49.68
2018-06-14T11:44:50.300Z,49.77
2018-06-14T11:45:50.226Z,49.41
2018-06-14T11:46:50.161Z,48.95
2018-06-14T11:48:11.083Z,48.86
2018-06-14T11:49:11.944Z,48.66
2018-06-14T11:49:49.976Z,48.39
2018-06-14T11:50:49.927Z,47.63
2018-06-14T11:51:49.856Z,47.50
2018-06-14T11:53:10.786Z,47.60
2018-06-14T11:54:10.697Z,48.28
2018-06-14T11:54:49.676Z,48.54
2018-06-14T11:55:49.611Z,48.28
2018-06-14T11:56:49.527Z,48.74
2018-06-14T11:58:10.446Z,49.41
2018-06-14T11:59:10.380Z,49.32
2018-06-14T11:59:49.330Z,49.99
2018-06-14T12:00:49.248Z,49.02
2018-06-14T12:01:49.258Z,48.83
2018-06-14T12:03:12.942Z,49.02
2018-06-14T12:04:10.983Z,49.96
2018-06-14T12:04:48.992Z,49.68
2018-06-14T12:05:48.934Z,49.70
2018-06-14T12:06:48.872Z,49.99
2018-06-14T12:08:09.794Z,50.09
2018-06-14T12:09:09.722Z,49.92
2018-06-14T12:09:48.715Z,49.73
2018-06-14T12:10:48.612Z,48.88
2018-06-14T12:11:48.538Z,48.97
2018-06-14T12:13:09.470Z,47.63
2018-06-14T12:14:09.515Z,47.43
2018-06-14T12:14:48.352Z,47.72
2018-06-14T12:15:48.266Z,47.72
2018-06-14T12:16:48.229Z,47.14
2018-06-14T12:18:11.963Z,47.05
2018-06-14T12:19:10.962Z,47.14
2018-06-14T12:19:48.015Z,46.47
2018-06-14T12:20:47.937Z,47.33
2018-06-14T12:21:47.874Z,47.60
2018-06-14T12:23:08.824Z,47.99
2018-06-14T12:24:08.727Z,48.08
2018-06-14T12:24:47.705Z,48.57
2018-06-14T12:25:47.671Z,48.18
2018-06-14T12:26:47.578Z,48.08
2018-06-14T12:28:08.471Z,49.55
2018-06-14T12:29:08.412Z,49.17
2018-06-14T12:29:47.349Z,47.72
2018-06-14T12:30:47.297Z,47.14
2018-06-14T12:31:47.274Z,46.17
2018-06-14T12:33:10.978Z,48.39
2018-06-14T12:34:10.951Z,49.37
2018-06-14T12:34:47.042Z,49.19
2018-06-14T12:35:46.959Z,47.28
2018-06-14T12:36:46.889Z,47.19
2018-06-14T12:38:07.820Z,46.53
2018-06-14T12:39:07.785Z,46.73
2018-06-14T12:39:46.737Z,47.41
2018-06-14T12:40:46.637Z,47.02
2018-06-14T12:41:46.555Z,45.66
2018-06-14T12:43:07.497Z,45.18
2018-06-14T12:44:07.435Z,46.05
2018-06-14T12:44:46.408Z,46.05
2018-06-14T12:45:46.318Z,45.95
2018-06-14T12:46:46.893Z,45.66
2018-06-14T12:48:07.153Z,45.37
2018-06-14T12:49:11.970Z,46.05
2018-06-14T12:49:46.049Z,46.26
2018-06-14T12:50:46.004Z,44.31